createdAt,value
2023-07-18T00:00:49.149Z,19.72
2023-07-18T00:03:16.806Z,19.72
2023-07-18T00:05:43.531Z,20.10
2023-07-18T00:08:10.438Z,19.60
2023-07-18T00:10:37.852Z,20.22
2023-07-18T00:13:05.266Z,19.56
2023-07-18T00:15:32.629Z,19.45
2023-07-18T00:18:00.396Z,19.67
2023-07-18T00:20:27.320Z,19.91
2023-07-18T00:22:53.926Z,19.70
2023-07-18T00:25:22.155Z,19.56
2023-07-18T00:27:55.056Z,20.02
2023-07-18T00:30:22.892Z,20.12
2023-07-18T00:32:49.579Z,19.69
2023-07-18T00:35:17.519Z,20.22
2023-07-18T00:37:44.764Z,20.22
2023-07-18T00:40:13.129Z,20.30
2023-07-18T00:42:40.794Z,19.34
2023-07-18T00:45:08.623Z,19.31
2023-07-18T00:47:41.833Z,20.16
2023-07-18T00:50:10.490Z,19.84
2023-07-18T00:52:42.262Z,19.53
2023-07-18T00:55:12.489Z,19.41
2023-07-18T00:57:40.747Z,19.33
2023-07-18T01:00:10.465Z,19.45
2023-07-18T01:02:41.302Z,20.19
2023-07-18T01:05:09.435Z,19.52
2023-07-18T01:07:40.050Z,19.81
2023-07-18T01:10:26.901Z,20.09
2023-07-18T01:12:58.100Z,19.72
2023-07-18T01:15:26.641Z,19.94
2023-07-18T01:17:53.607Z,19.28
2023-07-18T01:20:22.858Z,19.07
2023-07-18T01:22:51.975Z,18.95
2023-07-18T01:25:19.271Z,18.92
2023-07-18T01:27:51.378Z,19.50
2023-07-18T01:30:28.408Z,19.64
2023-07-18T01:32:55.840Z,19.05
2023-07-18T01:35:26.353Z,19.26
2023-07-18T01:37:53.992Z,19.09
2023-07-18T01:40:21.923Z,19.54
2023-07-18T01:42:53.705Z,19.55
2023-07-18T01:45:24.228Z,19.13
2023-07-18T01:47:52.407Z,18.54
2023-07-18T01:50:19.933Z,18.46
2023-07-18T01:52:48.278Z,19.20
2023-07-18T01:55:15.987Z,18.92
2023-07-18T01:57:47.254Z,18.46
2023-07-18T02:00:20.465Z,18.73
2023-07-18T02:02:49.895Z,18.50
2023-07-18T02:05:20.026Z,18.87
2023-07-18T02:07:47.938Z,19.14
2023-07-18T02:10:16.120Z,18.54
2023-07-18T02:12:42.620Z,18.01
2023-07-18T02:15:09.977Z,18.89
2023-07-18T02:17:36.650Z,18.20
2023-07-18T02:20:06.861Z,18.52
2023-07-18T02:22:35.226Z,19.10
2023-07-18T02:25:06.163Z,18.69
2023-07-18T02:27:35.050Z,18.77
2023-07-18T02:30:02.279Z,18.98
2023-07-18T02:32:31.646Z,18.31
2023-07-18T02:34:59.009Z,18.83
2023-07-18T02:37:26.399Z,18.70
2023-07-18T02:39:53.045Z,18.37
2023-07-18T02:42:19.775Z,18.29
2023-07-18T02:44:47.429Z,18.56
2023-07-18T02:47:15.155Z,18.20
2023-07-18T02:49:42.203Z,18.30
2023-07-18T02:52:09.351Z,18.09
2023-07-18T02:54:36.100Z,18.64
2023-07-18T02:57:02.633Z,18.37
2023-07-18T02:59:29.258Z,18.21
2023-07-18T03:01:58.027Z,18.78
2023-07-18T03:04:26.845Z,17.88
2023-07-18T03:06:54.097Z,18.43
2023-07-18T03:09:22.991Z,18.25
2023-07-18T03:11:52.953Z,18.78
2023-07-18T03:14:20.105Z,18.08
2023-07-18T03:16:46.880Z,17.40
2023-07-18T03:19:15.595Z,18.38
2023-07-18T03:21:44.548Z,17.74
2023-07-18T03:24:11.362Z,17.86
2023-07-18T03:26:37.946Z,18.01
2023-07-18T03:29:06.326Z,17.74
2023-07-18T03:31:34.130Z,17.26
2023-07-18T03:34:01.771Z,17.33
2023-07-18T03:36:28.591Z,17.61
2023-07-18T03:38:55.180Z,18.32
2023-07-18T03:41:22.041Z,17.37
2023-07-18T03:43:48.933Z,17.39
2023-07-18T03:46:15.441Z,17.37
2023-07-18T03:48:42.166Z,17.33
2023-07-18T03:51:09.513Z,17.36
2023-07-18T03:53:36.539Z,17.54
2023-07-18T03:56:07.197Z,17.60
2023-07-18T03:58:34.853Z,17.41
2023-07-18T04:01:08.352Z,17.51
2023-07-18T04:03:35.456Z,17.27
2023-07-18T04:06:02.553Z,17.36
2023-07-18T04:08:29.950Z,17.75
2023-07-18T04:10:59.013Z,17.48
2023-07-18T04:13:26.427Z,17.89
2023-07-18T04:15:56.369Z,18.42
2023-07-18T04:18:23.633Z,17.83
2023-07-18T04:20:52.910Z,18.18
2023-07-18T04:23:19.565Z,17.70
2023-07-18T04:25:59.545Z,18.05
2023-07-18T04:28:28.241Z,18.12
2023-07-18T04:30:55.121Z,17.63
2023-07-18T04:33:21.829Z,17.42
2023-07-18T04:35:48.353Z,17.81
2023-07-18T04:38:15.109Z,18.02
2023-07-18T04:40:42.384Z,18.28
2023-07-18T04:43:09.788Z,18.20
2023-07-18T04:45:44.155Z,18.33
2023-07-18T04:48:11.669Z,18.37
2023-07-18T04:50:38.431Z,17.75
2023-07-18T04:53:04.934Z,17.73
2023-07-18T04:55:31.456Z,17.86
2023-07-18T04:57:58.154Z,17.46
2023-07-18T05:00:24.859Z,18.40
2023-07-18T05:02:51.449Z,17.76
2023-07-18T05:05:19.140Z,18.28
2023-07-18T05:07:46.097Z,17.47
2023-07-18T05:10:12.619Z,18.08
2023-07-18T05:12:39.449Z,18.16
2023-07-18T05:15:06.520Z,18.35
2023-07-18T05:17:33.124Z,18.29
2023-07-18T05:19:59.814Z,18.64
2023-07-18T05:22:26.365Z,18.59
2023-07-18T05:24:52.806Z,18.65
2023-07-18T05:27:19.248Z,18.69
2023-07-18T05:29:45.649Z,18.57
2023-07-18T05:32:12.113Z,18.61
2023-07-18T05:34:38.895Z,18.78
2023-07-18T05:37:05.695Z,18.91
2023-07-18T05:39:32.468Z,18.90
2023-07-18T05:41:59.382Z,19.00
2023-07-18T05:44:25.802Z,18.35
2023-07-18T05:46:52.258Z,18.84
2023-07-18T05:49:18.737Z,19.49
2023-07-18T05:51:45.303Z,19.49
2023-07-18T05:54:17.113Z,19.18
2023-07-18T05:56:50.063Z,18.55
2023-07-18T05:59:27.532Z,19.65
2023-07-18T06:01:54.299Z,18.59
2023-07-18T06:04:22.898Z,19.03
2023-07-18T06:06:51.073Z,19.81
2023-07-18T06:09:18.209Z,19.39
2023-07-18T06:11:51.493Z,19.25
2023-07-18T06:14:18.001Z,19.59
2023-07-18T06:19:34.754Z,19.24
2023-07-18T06:22:01.518Z,19.60
2023-07-18T06:24:31.118Z,19.85
2023-07-18T06:27:00.728Z,19.83
2023-07-18T06:29:29.861Z,19.59
2023-07-18T06:32:33.755Z,19.30
2023-07-18T06:35:06.215Z,20.11
2023-07-18T06:37:49.586Z,19.67
2023-07-18T06:40:16.896Z,20.07
2023-07-18T06:42:43.841Z,20.60
2023-07-18T06:45:17.237Z,19.91
2023-07-18T06:47:46.462Z,20.13
2023-07-18T06:50:13.297Z,20.23
2023-07-18T06:52:39.999Z,19.59
2023-07-18T06:55:11.715Z,20.59
2023-07-18T06:57:41.917Z,20.06
2023-07-18T07:00:12.786Z,20.75
2023-07-18T07:02:39.302Z,20.78
2023-07-18T07:05:06.056Z,21.14
2023-07-18T07:07:36.061Z,20.32
2023-07-18T07:10:05.076Z,20.93
2023-07-18T07:12:37.198Z,21.05
2023-07-18T07:15:07.425Z,21.12
2023-07-18T07:17:36.902Z,20.55
2023-07-18T07:20:06.201Z,21.28
2023-07-18T07:22:35.766Z,21.18
2023-07-18T07:25:04.397Z,21.72
2023-07-18T07:27:30.997Z,21.86
2023-07-18T07:29:57.559Z,21.71
2023-07-18T07:32:24.072Z,21.52
2023-07-18T07:34:50.771Z,21.40
2023-07-18T07:37:17.431Z,21.45
2023-07-18T07:39:44.515Z,21.60
2023-07-18T07:42:11.048Z,20.97
2023-07-18T07:44:38.019Z,21.48
2023-07-18T07:47:04.725Z,21.36
2023-07-18T07:49:31.305Z,21.31
2023-07-18T07:52:05.050Z,21.75
2023-07-18T07:54:31.874Z,22.21
2023-07-18T07:56:58.387Z,22.03
2023-07-18T07:59:24.881Z,21.94
2023-07-18T08:01:53.624Z,22.05
2023-07-18T08:04:23.582Z,22.42
2023-07-18T08:06:54.590Z,22.58
2023-07-18T08:09:21.665Z,22.96
2023-07-18T08:11:54.993Z,22.68
2023-07-18T08:14:23.457Z,22.29
2023-07-18T08:16:50.400Z,22.66
2023-07-18T08:19:17.241Z,22.93
2023-07-18T08:21:44.170Z,22.76
2023-07-18T08:24:10.774Z,23.10
2023-07-18T08:26:37.512Z,22.85
2023-07-18T08:29:04.229Z,23.12
2023-07-18T08:31:31.151Z,22.88
2023-07-18T08:33:59.350Z,22.60
2023-07-18T08:36:27.045Z,22.32
2023-07-18T08:38:53.762Z,23.17
2023-07-18T08:41:23.445Z,23.23
2023-07-18T08:43:50.383Z,23.04
2023-07-18T08:46:17.930Z,23.59
2023-07-18T08:48:46.047Z,23.36
2023-07-18T08:51:13.607Z,23.44
2023-07-18T08:53:40.917Z,23.14
2023-07-18T08:56:12.002Z,23.54
2023-07-18T08:58:39.104Z,23.71
2023-07-18T09:01:06.474Z,23.46
2023-07-18T09:03:33.259Z,23.97
2023-07-18T09:06:04.862Z,24.27
2023-07-18T09:08:44.018Z,23.72
2023-07-18T09:11:14.523Z,23.95
2023-07-18T09:13:44.755Z,24.69
2023-07-18T09:16:23.687Z,23.64
2023-07-18T09:18:51.408Z,24.45
2023-07-18T09:21:19.691Z,24.53
2023-07-18T09:23:51.095Z,24.23
2023-07-18T09:26:19.263Z,24.62
2023-07-18T09:28:49.594Z,24.83
2023-07-18T09:31:20.666Z,24.69
2023-07-18T09:33:48.581Z,24.86
2023-07-18T09:36:19.741Z,24.10
2023-07-18T09:38:50.160Z,25.05
2023-07-18T09:41:21.634Z,24.67
2023-07-18T09:43:49.555Z,25.05
2023-07-18T09:46:18.059Z,25.03
2023-07-18T09:48:47.974Z,24.39
2023-07-18T09:51:21.681Z,24.39
2023-07-18T09:53:49.639Z,24.71
2023-07-18T09:56:18.157Z,24.43
2023-07-18T09:58:48.132Z,23.65
2023-07-18T10:01:21.149Z,24.59
2023-07-18T10:03:53.879Z,24.70
2023-07-18T10:06:22.091Z,24.20
2023-07-18T10:08:49.402Z,24.60
2023-07-18T10:11:16.120Z,24.21
2023-07-18T10:14:03.754Z,24.44
2023-07-18T10:16:32.446Z,24.45
2023-07-18T10:18:59.084Z,24.74
2023-07-18T10:21:33.631Z,24.83
2023-07-18T10:24:22.326Z,25.13
2023-07-18T10:26:51.894Z,24.73
2023-07-18T10:29:18.832Z,24.78
2023-07-18T10:31:46.323Z,25.19
2023-07-18T10:34:17.629Z,25.19
2023-07-18T10:36:59.173Z,25.52
2023-07-18T10:39:51.216Z,24.89
2023-07-18T10:42:21.807Z,25.43
2023-07-18T10:44:49.482Z,25.06
2023-07-18T10:47:17.376Z,24.27
2023-07-18T10:49:48.501Z,24.70
2023-07-18T10:52:16.449Z,24.81
2023-07-18T10:54:51.874Z,25.40
2023-07-18T10:57:33.984Z,24.97
2023-07-18T11:00:01.759Z,25.49
2023-07-18T11:02:29.383Z,25.28
2023-07-18T11:04:55.934Z,25.70
2023-07-18T11:07:34.355Z,25.44
2023-07-18T11:10:01.788Z,25.28
2023-07-18T11:12:28.241Z,25.25
2023-07-18T11:14:56.710Z,24.85
2023-07-18T11:17:24.873Z,25.12
2023-07-18T11:19:51.362Z,24.91
2023-07-18T11:22:18.309Z,25.11
2023-07-18T11:24:46.452Z,25.56
2023-07-18T11:27:18.902Z,25.87
2023-07-18T11:29:59.065Z,26.12
2023-07-18T11:32:41.487Z,26.38
2023-07-18T11:35:10.115Z,25.93
2023-07-18T11:37:42.384Z,26.26
2023-07-18T11:40:10.604Z,26.73
2023-07-18T11:42:54.602Z,26.72
2023-07-18T11:45:22.847Z,26.72
2023-07-18T11:47:52.130Z,26.56
2023-07-18T11:50:19.957Z,27.09
2023-07-18T11:52:53.670Z,26.62
2023-07-18T11:55:22.920Z,26.66
2023-07-18T11:57:50.484Z,27.18
2023-07-18T12:00:18.500Z,26.59
2023-07-18T12:02:47.172Z,27.48
2023-07-18T12:05:15.290Z,27.69
2023-07-18T12:07:45.589Z,27.96
2023-07-18T12:10:12.975Z,27.21
2023-07-18T12:12:43.185Z,27.81
2023-07-18T12:15:12.948Z,27.69
2023-07-18T12:17:39.698Z,26.76
2023-07-18T12:20:10.217Z,27.86
2023-07-18T12:22:38.701Z,28.31
2023-07-18T12:25:05.784Z,28.11
2023-07-18T12:27:32.351Z,27.67
2023-07-18T12:29:58.797Z,28.18
2023-07-18T12:32:29.137Z,28.24
2023-07-18T12:34:57.900Z,28.34
2023-07-18T12:37:24.550Z,28.28
2023-07-18T12:39:51.023Z,27.59
2023-07-18T12:42:17.563Z,28.31
2023-07-18T12:44:45.790Z,27.70
2023-07-18T12:47:13.112Z,27.45
2023-07-18T12:52:09.833Z,28.16
2023-07-18T12:54:36.317Z,28.60
2023-07-18T12:57:03.121Z,27.73
2023-07-18T12:59:29.692Z,28.22
2023-07-18T13:01:57.000Z,28.10
2023-07-18T13:04:24.585Z,28.61
2023-07-18T13:06:51.719Z,28.92
2023-07-18T13:09:18.190Z,28.41
2023-07-18T13:11:45.730Z,29.11
2023-07-18T13:14:14.644Z,28.86
2023-07-18T13:16:41.156Z,29.16
2023-07-18T13:19:07.629Z,28.59
2023-07-18T13:21:34.127Z,29.10
2023-07-18T13:24:00.567Z,28.88
2023-07-18T13:26:27.198Z,29.01
2023-07-18T13:28:53.728Z,28.69
2023-07-18T13:31:20.401Z,29.05
2023-07-18T13:33:49.197Z,29.40
2023-07-18T13:36:15.828Z,28.65
2023-07-18T13:38:42.306Z,28.88
2023-07-18T13:41:12.029Z,28.53
2023-07-18T13:43:40.488Z,28.49
2023-07-18T13:46:07.507Z,29.15
2023-07-18T13:48:34.626Z,28.87
2023-07-18T13:51:01.705Z,29.35
2023-07-18T13:53:28.204Z,29.18
2023-07-18T13:55:56.161Z,30.12
2023-07-18T13:58:23.346Z,30.16
2023-07-18T14:00:50.023Z,30.53
2023-07-18T14:03:33.257Z,30.49
2023-07-18T14:06:02.198Z,30.25
2023-07-18T14:08:30.539Z,29.99
2023-07-18T14:10:57.379Z,29.81
2023-07-18T14:13:23.883Z,29.67
2023-07-18T14:15:50.500Z,30.40
2023-07-18T14:18:17.021Z,30.56
2023-07-18T14:20:43.465Z,30.28
2023-07-18T14:23:09.966Z,30.52
2023-07-18T14:25:36.491Z,30.63
2023-07-18T14:28:03.001Z,30.17
2023-07-18T14:30:29.766Z,30.05
2023-07-18T14:32:56.197Z,30.15
2023-07-18T14:35:23.083Z,30.56
2023-07-18T14:37:51.541Z,30.17
2023-07-18T14:40:18.245Z,30.41
2023-07-18T14:42:45.148Z,30.36
2023-07-18T14:45:11.735Z,30.39
2023-07-18T14:47:38.180Z,30.75
2023-07-18T14:50:05.052Z,30.77
2023-07-18T14:52:31.778Z,30.77
2023-07-18T14:54:58.520Z,30.58
2023-07-18T14:57:26.618Z,30.51
2023-07-18T14:59:54.300Z,30.61
2023-07-18T15:02:21.549Z,30.91
2023-07-18T15:04:48.310Z,31.29
2023-07-18T15:07:14.914Z,31.45
2023-07-18T15:09:41.301Z,31.34
2023-07-18T15:12:08.130Z,31.12
2023-07-18T15:14:37.418Z,30.77
2023-07-18T15:17:04.969Z,31.26
2023-07-18T15:19:32.853Z,31.44
2023-07-18T15:22:00.422Z,31.65
2023-07-18T15:24:26.946Z,31.66
2023-07-18T15:26:53.424Z,31.76
2023-07-18T15:29:19.952Z,32.43
2023-07-18T15:31:46.479Z,32.35
2023-07-18T15:34:13.044Z,31.61
2023-07-18T15:36:39.667Z,32.00
2023-07-18T15:39:06.222Z,31.63
2023-07-18T15:41:32.728Z,32.32
2023-07-18T15:43:59.154Z,31.93
2023-07-18T15:46:25.928Z,32.71
2023-07-18T15:48:52.510Z,32.31
2023-07-18T15:51:18.947Z,32.26
2023-07-18T15:53:45.414Z,31.84
2023-07-18T15:56:15.362Z,32.41
2023-07-18T15:58:42.270Z,31.94
2023-07-18T16:01:08.804Z,31.89
2023-07-18T16:03:35.287Z,32.21
2023-07-18T16:06:01.855Z,32.15
2023-07-18T16:08:28.276Z,32.18
2023-07-18T16:10:55.100Z,32.09
2023-07-18T16:13:21.577Z,32.09
2023-07-18T16:15:48.545Z,31.75
2023-07-18T16:18:15.140Z,32.29
2023-07-18T16:20:41.619Z,32.37
2023-07-18T16:23:08.174Z,32.33
2023-07-18T16:25:34.640Z,31.94
2023-07-18T16:28:01.075Z,32.19
2023-07-18T16:30:27.489Z,32.14
2023-07-18T16:32:55.069Z,32.47
2023-07-18T16:35:22.102Z,31.96
2023-07-18T16:37:48.591Z,32.39
2023-07-18T16:40:15.101Z,32.70
2023-07-18T16:42:41.765Z,32.32
2023-07-18T16:45:09.024Z,32.34
2023-07-18T16:47:35.542Z,32.12
2023-07-18T16:50:01.958Z,31.83
2023-07-18T16:52:28.521Z,31.68
2023-07-18T16:54:54.913Z,31.52
2023-07-18T16:57:24.712Z,30.95
2023-07-18T16:59:51.529Z,31.09
2023-07-18T17:02:17.929Z,31.19
2023-07-18T17:04:44.433Z,31.10
2023-07-18T17:07:11.008Z,30.62
2023-07-18T17:09:37.451Z,30.46
2023-07-18T17:12:04.180Z,30.08
2023-07-18T17:14:30.666Z,30.22
2023-07-18T17:16:57.118Z,30.10
2023-07-18T17:19:23.586Z,29.95
2023-07-18T17:21:50.013Z,29.88
2023-07-18T17:24:16.401Z,29.78
2023-07-18T17:26:43.307Z,29.44
2023-07-18T17:29:09.723Z,29.61
2023-07-18T17:31:36.122Z,29.75
2023-07-18T17:34:03.453Z,29.30
2023-07-18T17:36:30.250Z,29.22
2023-07-18T17:38:56.692Z,29.23
2023-07-18T17:41:23.714Z,29.35
2023-07-18T17:43:50.098Z,28.95
2023-07-18T17:46:16.747Z,29.41
2023-07-18T17:48:43.334Z,29.37
2023-07-18T17:51:09.746Z,29.27
2023-07-18T17:53:38.905Z,29.18
2023-07-18T17:56:06.024Z,29.27
2023-07-18T17:58:32.509Z,29.47
2023-07-18T18:00:59.087Z,29.21
2023-07-18T18:03:25.698Z,28.95
2023-07-18T18:05:52.903Z,29.25
2023-07-18T18:08:19.559Z,29.00
2023-07-18T18:10:47.512Z,28.92
2023-07-18T18:13:14.841Z,28.73
2023-07-18T18:15:56.407Z,28.66
2023-07-18T18:18:31.188Z,28.57
2023-07-18T18:20:58.487Z,28.61
2023-07-18T18:23:37.469Z,28.60
2023-07-18T18:26:06.987Z,28.69
2023-07-18T18:28:33.598Z,28.72
2023-07-18T18:31:00.097Z,28.20
2023-07-18T18:33:26.613Z,28.49
2023-07-18T18:35:53.735Z,28.46
2023-07-18T18:38:20.158Z,28.22
2023-07-18T18:40:46.587Z,28.35
2023-07-18T18:43:13.065Z,28.00
2023-07-18T18:45:39.503Z,28.42
2023-07-18T18:48:05.973Z,28.56
2023-07-18T18:50:32.476Z,28.44
2023-07-18T18:52:58.857Z,28.33
2023-07-18T18:55:28.143Z,28.29
2023-07-18T18:57:55.756Z,28.51
2023-07-18T19:00:22.838Z,28.39
2023-07-18T19:02:49.405Z,28.49
2023-07-18T19:05:15.837Z,28.39
2023-07-18T19:07:42.256Z,28.30
2023-07-18T19:10:10.315Z,28.29
2023-07-18T19:12:36.777Z,27.84
2023-07-18T19:15:03.615Z,27.48
2023-07-18T19:17:30.252Z,28.12
2023-07-18T19:19:56.858Z,28.10
2023-07-18T19:22:23.400Z,27.91
2023-07-18T19:24:50.126Z,27.87
2023-07-18T19:27:16.691Z,27.78
2023-07-18T19:29:43.612Z,27.53
2023-07-18T19:32:11.185Z,27.56
2023-07-18T19:34:44.864Z,27.53
2023-07-18T19:37:11.383Z,27.25
2023-07-18T19:39:38.301Z,27.05
2023-07-18T19:42:06.025Z,27.42
2023-07-18T19:44:33.041Z,26.82
2023-07-18T19:46:59.698Z,27.18
2023-07-18T19:49:26.607Z,27.12
2023-07-18T19:51:54.578Z,27.05
2023-07-18T19:54:21.054Z,26.77
2023-07-18T19:56:47.907Z,26.43
2023-07-18T19:59:14.699Z,26.84
2023-07-18T20:01:41.268Z,26.83
2023-07-18T20:04:07.986Z,26.94
2023-07-18T20:06:34.528Z,26.58
2023-07-18T20:09:01.189Z,26.30
2023-07-18T20:11:30.483Z,26.69
2023-07-18T20:13:58.605Z,26.79
2023-07-18T20:16:25.680Z,26.43
2023-07-18T20:18:57.033Z,26.35
2023-07-18T20:21:27.215Z,26.35
2023-07-18T20:23:53.717Z,25.93
2023-07-18T20:26:20.255Z,25.68
2023-07-18T20:28:46.737Z,26.34
2023-07-18T20:31:13.341Z,25.72
2023-07-18T20:33:41.778Z,25.89
2023-07-18T20:36:09.794Z,26.29
2023-07-18T20:38:36.260Z,26.37
2023-07-18T20:41:02.982Z,26.11
2023-07-18T20:43:29.636Z,25.67
2023-07-18T20:45:59.899Z,25.87
2023-07-18T20:48:28.139Z,26.43
2023-07-18T20:50:55.481Z,26.18
2023-07-18T20:53:22.561Z,25.56
2023-07-18T20:55:49.188Z,26.04
2023-07-18T20:58:15.667Z,25.55
2023-07-18T21:00:42.185Z,25.26
2023-07-18T21:03:08.778Z,25.86
2023-07-18T21:05:35.231Z,25.99
2023-07-18T21:08:02.463Z,25.19
2023-07-18T21:10:28.886Z,25.32
2023-07-18T21:12:55.299Z,25.59
2023-07-18T21:15:22.265Z,25.40
2023-07-18T21:17:48.786Z,25.29
2023-07-18T21:20:15.441Z,25.41
2023-07-18T21:22:45.097Z,25.31
2023-07-18T21:25:12.237Z,25.29
2023-07-18T21:27:38.770Z,25.45
2023-07-18T21:30:08.437Z,25.13
2023-07-18T21:32:35.746Z,24.85
2023-07-18T21:35:03.071Z,24.50
2023-07-18T21:37:30.095Z,24.49
2023-07-18T21:39:56.516Z,24.41
2023-07-18T21:42:22.965Z,23.96
2023-07-18T21:44:49.369Z,24.70
2023-07-18T21:47:15.738Z,24.64
2023-07-18T21:49:42.132Z,24.29
2023-07-18T21:52:08.549Z,24.29
2023-07-18T21:54:34.977Z,24.34
2023-07-18T21:57:01.414Z,24.62
2023-07-18T21:59:27.888Z,24.90
2023-07-18T22:01:54.315Z,24.68
2023-07-18T22:04:20.672Z,24.39
2023-07-18T22:06:47.115Z,24.53
2023-07-18T22:09:13.595Z,24.04
2023-07-18T22:11:40.101Z,24.38
2023-07-18T22:14:06.547Z,24.27
2023-07-18T22:16:33.051Z,23.95
2023-07-18T22:18:59.461Z,24.12
2023-07-18T22:21:25.924Z,23.43
2023-07-18T22:23:52.294Z,23.07
2023-07-18T22:26:18.690Z,23.14
2023-07-18T22:28:45.623Z,22.58
2023-07-18T22:31:12.587Z,23.65
2023-07-18T22:33:39.091Z,23.90
2023-07-18T22:36:05.765Z,23.29
2023-07-18T22:38:32.199Z,23.80
2023-07-18T22:40:59.939Z,23.91
2023-07-18T22:43:26.403Z,23.47
2023-07-18T22:45:52.883Z,23.72
2023-07-18T22:48:22.574Z,23.80
2023-07-18T22:50:52.020Z,23.04
2023-07-18T22:53:19.341Z,23.75
2023-07-18T22:55:49.105Z,23.79
2023-07-18T22:58:16.017Z,23.64
2023-07-18T23:00:43.266Z,23.66
2023-07-18T23:03:10.016Z,23.16
2023-07-18T23:05:37.692Z,23.28
2023-07-18T23:08:05.523Z,23.57
2023-07-18T23:10:32.798Z,23.37
2023-07-18T23:12:59.680Z,22.47
2023-07-18T23:15:26.608Z,22.59
2023-07-18T23:17:53.070Z,23.11
2023-07-18T23:20:19.799Z,23.07
2023-07-18T23:22:46.339Z,22.57
2023-07-18T23:25:13.379Z,22.71
2023-07-18T23:27:40.052Z,22.89
2023-07-18T23:30:07.349Z,22.67
2023-07-18T23:32:34.024Z,22.20
2023-07-18T23:35:00.686Z,22.57
2023-07-18T23:37:27.126Z,22.05
2023-07-18T23:39:53.751Z,22.80
2023-07-18T23:42:20.288Z,22.79
2023-07-18T23:44:46.809Z,22.62
2023-07-18T23:47:13.235Z,22.38
2023-07-18T23:49:39.712Z,21.52
2023-07-18T23:52:06.444Z,22.11
2023-07-18T23:54:32.983Z,22.59
2023-07-18T23:56:59.481Z,22.09
2023-07-18T23:59:25.954Z,22.88
